createdAt,value
2023-03-01T00:04:39.645Z,61.69
2023-03-01T00:14:42.487Z,61.92
2023-03-01T00:24:46.829Z,63.56
2023-03-01T00:34:56.149Z,62.75
2023-03-01T00:45:00.714Z,63.03
2023-03-01T00:55:04.051Z,62.71
2023-03-01T01:05:10.203Z,62.59
2023-03-01T01:15:14.898Z,65.08
2023-03-01T01:25:19.277Z,62.98
2023-03-01T01:35:23.097Z,64.05
2023-03-01T01:45:32.126Z,65.36
2023-03-01T01:55:35.476Z,63.33
2023-03-01T02:05:54.751Z,63.80
2023-03-01T02:15:58.640Z,64.42
2023-03-01T02:26:09.036Z,63.75
2023-03-01T02:36:19.654Z,65.37
2023-03-01T02:46:25.177Z,68.72
2023-03-01T02:56:30.567Z,65.83
2023-03-01T03:06:34.222Z,67.62
2023-03-01T03:16:38.569Z,66.73
2023-03-01T03:26:41.925Z,67.31
2023-03-01T03:36:46.349Z,67.54
2023-03-01T03:46:49.599Z,68.70
2023-03-01T03:56:54.006Z,67.41
2023-03-01T04:06:57.060Z,67.38
2023-03-01T04:17:02.140Z,67.15
2023-03-01T04:27:05.097Z,68.12
2023-03-01T04:37:10.108Z,67.27
2023-03-01T04:47:13.955Z,67.80
2023-03-01T04:57:18.409Z,68.01
2023-03-01T05:07:21.284Z,67.99
2023-03-01T05:17:25.876Z,69.41
2023-03-01T05:27:28.882Z,67.97
2023-03-01T05:37:33.242Z,70.21
2023-03-01T05:47:36.675Z,68.46
2023-03-01T05:57:41.263Z,70.22
2023-03-01T06:07:45.217Z,72.07
2023-03-01T06:17:49.956Z,72.66
2023-03-01T06:27:54.292Z,72.31
2023-03-01T06:37:59.575Z,70.68
2023-03-01T06:48:07.166Z,72.82
2023-03-01T06:58:13.516Z,73.17
2023-03-01T07:08:16.550Z,73.51
2023-03-01T07:18:21.945Z,74.24
2023-03-01T07:28:25.472Z,74.05
2023-03-01T07:38:30.166Z,73.03
2023-03-01T07:48:34.397Z,74.60
2023-03-01T07:58:39.898Z,75.34
2023-03-01T08:08:43.608Z,75.08
2023-03-01T08:18:48.149Z,74.04
2023-03-01T08:28:52.168Z,74.48
2023-03-01T08:38:56.588Z,74.66
2023-03-01T08:49:00.606Z,75.13
2023-03-01T08:59:05.280Z,74.67
2023-03-01T09:09:10.301Z,72.42
2023-03-01T09:19:15.150Z,71.50
2023-03-01T09:29:20.970Z,70.24
2023-03-01T09:39:25.479Z,68.87
2023-03-01T09:49:32.369Z,69.13
2023-03-01T09:59:54.911Z,67.99
2023-03-01T10:09:58.237Z,66.07
2023-03-01T10:20:15.998Z,62.27
2023-03-01T10:30:23.195Z,59.33
2023-03-01T10:40:27.845Z,58.85
2023-03-01T10:50:31.460Z,58.27
2023-03-01T11:00:48.789Z,56.30
2023-03-01T11:10:51.920Z,55.14
2023-03-01T11:20:57.791Z,53.05
2023-03-01T11:31:09.033Z,52.50
2023-03-01T11:41:18.576Z,50.83
2023-03-01T11:51:27.377Z,49.67
2023-03-01T12:01:47.233Z,48.78
2023-03-01T12:12:07.084Z,48.37
2023-03-01T12:22:26.384Z,45.52
2023-03-01T12:32:45.466Z,45.26
2023-03-01T12:43:00.959Z,46.47
2023-03-01T12:53:04.279Z,45.89
2023-03-01T13:03:20.419Z,45.04
2023-03-01T13:13:25.321Z,44.10
2023-03-01T13:23:33.311Z,44.87
2023-03-01T13:33:45.103Z,43.47
2023-03-01T13:43:52.637Z,44.40
2023-03-01T13:53:58.707Z,42.58
2023-03-01T14:04:04.963Z,41.19
2023-03-01T14:14:20.541Z,40.56
2023-03-01T14:24:25.558Z,40.82
2023-03-01T14:34:29.314Z,39.77
2023-03-01T14:44:36.204Z,38.04
2023-03-01T14:54:43.492Z,38.16
2023-03-01T15:04:50.460Z,38.14
2023-03-01T15:15:03.299Z,40.77
2023-03-01T15:25:17.538Z,41.80
2023-03-01T15:35:42.846Z,43.35
2023-03-01T15:45:58.988Z,43.87
2023-03-01T15:56:02.038Z,41.26
2023-03-01T16:06:07.413Z,36.78
2023-03-01T16:16:13.610Z,45.85
2023-03-01T16:26:20.335Z,47.73
2023-03-01T16:36:26.487Z,49.10
2023-03-01T16:46:31.208Z,50.06
2023-03-01T16:56:35.723Z,50.82
2023-03-01T17:06:40.215Z,51.85
2023-03-01T17:16:43.426Z,51.92
2023-03-01T17:26:47.885Z,50.73
2023-03-01T17:36:52.090Z,49.07
2023-03-01T17:46:56.472Z,49.00
2023-03-01T17:57:00.537Z,48.97
2023-03-01T18:07:05.031Z,49.56
2023-03-01T18:17:12.398Z,48.29
2023-03-01T18:27:16.991Z,49.76
2023-03-01T18:37:20.811Z,44.08
2023-03-01T18:47:25.520Z,43.53
2023-03-01T18:57:29.118Z,43.16
2023-03-01T19:07:34.659Z,43.47
2023-03-01T19:17:37.635Z,43.88
2023-03-01T19:27:42.620Z,45.60
2023-03-01T19:37:45.828Z,47.42
2023-03-01T19:47:52.520Z,48.70
2023-03-01T19:57:55.631Z,49.40
2023-03-01T20:08:00.820Z,51.50
2023-03-01T20:18:04.322Z,52.26
2023-03-01T20:28:08.455Z,51.23
2023-03-01T20:38:12.900Z,51.84
2023-03-01T20:48:17.552Z,52.83
2023-03-01T20:58:20.978Z,54.25
2023-03-01T21:08:25.717Z,53.16
2023-03-01T21:18:30.411Z,53.48
2023-03-01T21:28:35.596Z,54.08
2023-03-01T21:38:40.545Z,54.96
2023-03-01T21:48:46.179Z,56.04
2023-03-01T21:58:50.020Z,57.42
2023-03-01T22:08:57.754Z,55.74
2023-03-01T22:19:02.274Z,56.97
2023-03-01T22:29:10.286Z,56.12
2023-03-01T22:39:15.557Z,56.37
2023-03-01T22:49:20.519Z,56.81
2023-03-01T22:59:24.024Z,56.53
2023-03-01T23:09:31.082Z,57.04
2023-03-01T23:19:34.231Z,57.80
2023-03-01T23:29:38.677Z,58.53
2023-03-01T23:39:42.710Z,58.76
2023-03-01T23:49:47.671Z,58.81
2023-03-01T23:59:51.784Z,58.60
